Time;durP1;ratioP1;P1;durP2;ratioP2;P2;SDS_P1;SDS_P2;PMS_P1;PMS_P2;Temp;Humidity;BMP_temperature;BMP_pressure;BME280_temperature;BME280_humidity;BME280_pressure;Samples;Min_cycle;Max_cycle;Signal;HPM_P1;HPM_P2
2022/05/26 00:02:04;;;;;;;8.30;2.33;;;16.00;99.90;;;;;;5058553;28;20485;-49
2022/05/26 00:04:31;;;;;;;2.40;2.20;;;16.00;99.90;;;;;;5058391;28;20515;-44
2022/05/26 00:06:59;;;;;;;3.20;2.33;;;15.90;99.90;;;;;;5058271;28;20478;-43
2022/05/26 00:09:26;;;;;;;3.13;2.30;;;15.90;99.90;;;;;;5059369;28;20432;-49
2022/05/26 00:11:52;;;;;;;2.37;1.97;;;15.90;99.90;;;;;;5058576;28;20444;-45
2022/05/26 00:14:19;;;;;;;3.73;2.37;;;15.90;99.90;;;;;;5058247;28;20491;-41
2022/05/26 00:16:47;;;;;;;2.37;1.83;;;15.80;99.90;;;;;;5059132;28;20440;-49
2022/05/26 00:19:16;;;;;;;2.50;2.10;;;15.80;99.90;;;;;;5058465;28;20468;-42
2022/05/26 00:21:45;;;;;;;2.20;2.00;;;15.80;99.90;;;;;;5058313;28;20743;-48
2022/05/26 00:24:12;;;;;;;3.43;2.60;;;15.80;99.90;;;;;;5057856;28;20463;-41
2022/05/26 00:26:38;;;;;;;2.63;1.77;;;15.80;99.90;;;;;;5057943;28;20506;-41
2022/05/26 00:29:06;;;;;;;2.57;1.70;;;15.80;99.90;;;;;;5058109;28;20440;-45
2022/05/26 00:31:32;;;;;;;2.47;2.07;;;15.80;99.90;;;;;;5057491;28;20464;-42
2022/05/26 00:33:59;;;;;;;4.00;1.73;;;15.80;99.90;;;;;;5058062;28;20987;-42
2022/05/26 00:36:38;;;;;;;6.90;2.20;;;15.80;99.90;;;;;;5057835;28;20881;-46
2022/05/26 00:39:08;;;;;;;2.53;1.97;;;15.80;99.90;;;;;;5058274;28;20470;-46
2022/05/26 00:41:38;;;;;;;2.47;1.90;;;15.80;99.90;;;;;;5057560;28;20555;-41
2022/05/26 00:44:08;;;;;;;3.87;2.30;;;15.80;99.90;;;;;;5057951;28;20444;-43
2022/05/26 00:46:45;;;;;;;1.73;1.63;;;15.70;99.90;;;;;;5058244;28;20553;-51
2022/05/26 00:49:19;;;;;;;4.23;1.70;;;15.70;99.90;;;;;;5058518;28;20427;-48
2022/05/26 00:51:46;;;;;;;3.80;2.10;;;15.60;99.90;;;;;;5058700;28;20463;-46
2022/05/26 00:54:18;;;;;;;3.30;2.13;;;15.70;99.90;;;;;;5057543;28;20475;-48
2022/05/26 00:56:50;;;;;;;3.40;2.07;;;15.60;99.90;;;;;;5057339;28;20476;-48
2022/05/26 00:59:24;;;;;;;2.30;2.10;;;15.60;99.90;;;;;;5057424;28;20424;-43
2022/05/26 01:01:51;;;;;;;2.30;1.60;;;15.60;99.90;;;;;;5057141;28;20476;-42
2022/05/26 01:04:20;;;;;;;3.30;2.03;;;15.70;99.90;;;;;;5057631;28;20447;-45
2022/05/26 01:06:52;;;;;;;1.97;1.60;;;15.70;99.90;;;;;;5056616;28;20491;-49
2022/05/26 01:09:25;;;;;;;2.20;1.80;;;15.80;99.90;;;;;;5057281;28;20456;-43
2022/05/26 01:11:52;;;;;;;3.27;2.97;;;15.70;99.90;;;;;;5055489;28;20440;-47
2022/05/26 01:14:22;;;;;;;2.80;1.93;;;15.80;99.90;;;;;;5057265;28;20456;-47
2022/05/26 01:17:04;;;;;;;1.90;1.70;;;15.80;99.90;;;;;;5057118;28;20906;-57
2022/05/26 01:20:11;;;;;;;2.80;1.63;;;15.80;99.90;;;;;;5057149;28;20464;-49
2022/05/26 01:23:02;;;;;;;1.90;1.60;;;15.80;99.90;;;;;;5057515;28;20440;-52
2022/05/26 01:26:02;;;;;;;1.90;1.60;;;15.80;99.90;;;;;;5057033;28;20440;-57
2022/05/26 01:28:45;;;;;;;1.90;1.57;;;15.70;99.90;;;;;;5057605;28;20467;-51
2022/05/26 01:31:36;;;;;;;2.80;1.90;;;15.80;99.90;;;;;;5057652;28;20421;-44
2022/05/26 01:34:14;;;;;;;3.00;1.57;;;15.70;99.90;;;;;;5056483;28;20514;-46
2022/05/26 01:36:48;;;;;;;2.63;1.60;;;15.70;99.90;;;;;;5057470;28;20460;-38
2022/05/26 01:39:23;;;;;;;1.73;1.63;;;15.70;99.90;;;;;;5057270;28;20421;-41
2022/05/26 01:42:02;;;;;;;1.70;1.40;;;15.70;99.90;;;;;;5056870;28;20459;-49
2022/05/26 01:44:39;;;;;;;2.17;1.40;;;15.70;99.90;;;;;;5056315;28;20437;-45
2022/05/26 01:47:15;;;;;;;1.93;1.40;;;15.80;99.90;;;;;;5056749;28;20499;-52
2022/05/26 01:49:47;;;;;;;1.20;1.10;;;15.80;99.90;;;;;;5057021;28;20439;-47
2022/05/26 01:52:16;;;;;;;3.53;1.90;;;15.80;99.90;;;;;;5056368;28;20460;-50
2022/05/26 01:54:49;;;;;;;5.50;2.30;;;15.80;99.90;;;;;;5056611;28;20503;-49
2022/05/26 01:57:20;;;;;;;2.47;1.80;;;15.90;99.90;;;;;;5056548;28;20502;-51
2022/05/26 01:59:50;;;;;;;2.10;1.63;;;15.90;99.90;;;;;;5056461;28;20466;-53
2022/05/26 02:02:22;;;;;;;3.30;1.53;;;15.90;99.90;;;;;;5056539;28;20506;-41
2022/05/26 02:04:53;;;;;;;1.73;1.37;;;15.90;99.90;;;;;;5056481;28;20461;-50
2022/05/26 02:07:27;;;;;;;2.37;1.50;;;16.00;99.90;;;;;;5056268;28;20413;-49
2022/05/26 02:09:57;;;;;;;2.30;1.53;;;16.00;99.90;;;;;;5056365;28;20425;-47
2022/05/26 02:12:30;;;;;;;2.20;1.33;;;16.00;99.90;;;;;;5056698;28;20444;-51
2022/05/26 02:15:02;;;;;;;1.97;1.50;;;16.00;99.90;;;;;;5055772;28;20511;-47
2022/05/26 02:17:38;;;;;;;1.70;1.43;;;16.00;99.90;;;;;;5055660;28;20474;-49
2022/05/26 02:20:10;;;;;;;1.77;1.53;;;16.00;99.90;;;;;;5056078;28;20464;-44
2022/05/26 02:22:41;;;;;;;1.77;1.40;;;16.00;99.90;;;;;;5055957;28;20520;-49
2022/05/26 02:25:16;;;;;;;1.60;1.50;;;16.10;99.90;;;;;;5052940;28;20443;-47
2022/05/26 02:27:43;;;;;;;2.43;1.40;;;16.10;99.90;;;;;;5055536;28;20415;-44
2022/05/26 02:30:12;;;;;;;1.70;1.50;;;16.10;99.90;;;;;;5055452;28;20446;-42
2022/05/26 02:32:43;;;;;;;2.10;1.30;;;16.10;99.90;;;;;;5055558;28;20421;-47
2022/05/26 02:35:15;;;;;;;2.33;1.53;;;16.10;99.90;;;;;;5055729;28;20462;-48
2022/05/26 02:37:47;;;;;;;2.13;1.50;;;16.10;99.90;;;;;;5056083;28;20444;-41
2022/05/26 02:40:15;;;;;;;2.20;1.70;;;16.10;99.90;;;;;;5055804;28;20412;-42
2022/05/26 02:42:47;;;;;;;1.93;1.07;;;16.20;99.90;;;;;;5055949;28;20467;-42
2022/05/26 02:45:14;;;;;;;1.27;1.17;;;16.20;99.90;;;;;;5055447;28;20460;-48
2022/05/26 02:47:58;;;;;;;2.93;1.10;;;16.20;99.90;;;;;;5056040;28;20490;-43
2022/05/26 02:50:41;;;;;;;2.13;1.50;;;16.30;99.90;;;;;;5056861;28;20424;-52
2022/05/26 02:53:19;;;;;;;2.90;1.30;;;16.20;99.90;;;;;;5056243;28;20433;-48
2022/05/26 02:55:56;;;;;;;2.37;1.40;;;16.30;99.90;;;;;;5056322;28;20523;-44
2022/05/26 02:58:33;;;;;;;1.20;1.10;;;16.30;99.90;;;;;;5054036;28;20439;-47
2022/05/26 03:01:07;;;;;;;1.87;1.50;;;16.40;99.90;;;;;;5055126;28;20475;-53
2022/05/26 03:03:40;;;;;;;4.50;1.03;;;16.40;99.90;;;;;;5057412;28;20446;-43
2022/05/26 03:06:12;;;;;;;2.83;1.53;;;16.50;99.90;;;;;;5059010;28;20486;-39
2022/05/26 03:08:43;;;;;;;1.57;1.10;;;16.50;99.90;;;;;;5055427;28;20448;-44
2022/05/26 03:11:13;;;;;;;3.37;1.23;;;16.50;99.90;;;;;;5055282;28;20456;-40
2022/05/26 03:13:40;;;;;;;1.50;1.20;;;16.60;99.90;;;;;;5055442;28;20451;-42
2022/05/26 03:16:09;;;;;;;2.00;1.27;;;16.60;99.90;;;;;;5055111;28;20499;-50
2022/05/26 03:18:40;;;;;;;1.70;1.30;;;16.70;99.90;;;;;;5055126;28;20440;-45
2022/05/26 03:21:08;;;;;;;2.40;1.30;;;16.70;99.90;;;;;;5055257;28;20424;-45
2022/05/26 03:23:36;;;;;;;2.13;1.30;;;16.80;99.90;;;;;;5055066;28;20447;-46
2022/05/26 03:26:04;;;;;;;1.70;1.33;;;16.80;99.90;;;;;;5048653;28;20444;-42
2022/05/26 03:28:31;;;;;;;3.20;1.50;;;16.80;99.90;;;;;;5055333;28;20464;-44
2022/05/26 03:30:58;;;;;;;2.30;1.47;;;16.80;99.90;;;;;;5055572;28;20440;-46
2022/05/26 03:33:25;;;;;;;2.37;1.23;;;16.90;99.90;;;;;;5055307;28;20463;-43
2022/05/26 03:41:38;;;;;;;1.80;1.30;;;16.80;99.90;;;;;;5005815;28;20450;-53
2022/05/26 03:44:04;;;;;;;3.40;1.30;;;16.80;99.90;;;;;;5028945;28;20456;-42
2022/05/26 03:46:31;;;;;;;2.20;1.07;;;16.80;99.90;;;;;;5055811;28;20409;-49
2022/05/26 03:48:58;;;;;;;1.73;1.10;;;16.80;99.90;;;;;;5053973;28;20467;-43
2022/05/26 03:51:28;;;;;;;1.60;1.40;;;16.80;99.90;;;;;;5055001;28;20460;-45
2022/05/26 03:53:55;;;;;;;3.53;1.93;;;16.80;99.90;;;;;;5054435;28;20463;-42
2022/05/26 03:56:21;;;;;;;2.60;1.20;;;16.80;99.90;;;;;;5054447;28;20522;-44
2022/05/26 03:58:48;;;;;;;1.47;1.20;;;16.80;99.90;;;;;;5054358;28;20460;-48
2022/05/26 04:01:15;;;;;;;1.93;1.53;;;16.80;99.90;;;;;;5055670;28;20456;-48
2022/05/26 04:03:41;;;;;;;3.73;1.30;;;16.80;99.90;;;;;;5055306;28;20424;-46
2022/05/26 04:06:08;;;;;;;3.57;1.20;;;16.80;99.90;;;;;;5052356;28;20467;-47
2022/05/26 04:08:36;;;;;;;2.53;1.47;;;16.80;99.90;;;;;;5045351;28;20428;-43
2022/05/26 04:11:03;;;;;;;1.47;1.10;;;16.90;99.90;;;;;;5057659;28;20452;-50
2022/05/26 04:13:31;;;;;;;1.93;1.33;;;16.90;99.90;;;;;;5057970;28;20464;-47
2022/05/26 04:15:57;;;;;;;3.30;1.53;;;16.90;99.90;;;;;;5058172;28;20817;-39
2022/05/26 04:18:24;;;;;;;3.43;1.17;;;16.80;99.90;;;;;;5057196;28;20475;-46
2022/05/26 04:20:51;;;;;;;3.27;1.40;;;16.80;99.90;;;;;;5058658;28;20440;-41
2022/05/26 04:23:17;;;;;;;3.73;1.30;;;16.80;99.90;;;;;;5058132;28;20526;-40
2022/05/26 04:25:45;;;;;;;1.73;1.13;;;16.80;99.90;;;;;;5057938;28;20409;-46
2022/05/26 04:28:12;;;;;;;3.10;1.70;;;16.80;99.90;;;;;;5058268;28;20440;-48
2022/05/26 04:30:39;;;;;;;2.80;1.60;;;16.80;99.90;;;;;;5056679;28;20459;-43
2022/05/26 04:33:08;;;;;;;1.67;1.00;;;16.80;99.90;;;;;;5056168;28;20432;-49
2022/05/26 04:35:35;;;;;;;3.10;1.40;;;16.90;99.90;;;;;;5056638;28;20498;-45
2022/05/26 04:38:02;;;;;;;1.90;1.50;;;16.90;99.90;;;;;;5057443;28;20586;-47
2022/05/26 04:40:28;;;;;;;1.90;1.70;;;17.00;99.90;;;;;;5058325;28;20457;-57
2022/05/26 04:42:56;;;;;;;1.50;1.40;;;17.00;99.90;;;;;;5058542;28;20427;-51
2022/05/26 04:45:27;;;;;;;3.83;2.00;;;17.00;99.90;;;;;;5057993;28;20424;-46
2022/05/26 04:47:57;;;;;;;2.00;1.70;;;16.90;99.90;;;;;;5057587;28;20455;-48
2022/05/26 04:50:23;;;;;;;3.93;1.57;;;16.90;99.90;;;;;;5057996;28;20425;-41
2022/05/26 04:52:50;;;;;;;2.33;1.93;;;16.90;99.90;;;;;;5057468;28;20490;-46
2022/05/26 04:55:18;;;;;;;2.10;1.70;;;16.90;99.90;;;;;;5057370;28;21025;-43
2022/05/26 04:57:44;;;;;;;2.30;1.53;;;16.90;99.90;;;;;;5057454;28;20475;-42
2022/05/26 05:00:16;;;;;;;4.80;1.70;;;17.00;99.90;;;;;;5057424;28;20425;-43
2022/05/26 05:02:44;;;;;;;2.50;1.70;;;17.00;99.90;;;;;;5057410;28;20419;-45
2022/05/26 05:05:13;;;;;;;2.33;2.10;;;17.00;99.90;;;;;;5057446;28;20476;-40
2022/05/26 05:07:40;;;;;;;4.17;2.20;;;17.00;99.90;;;;;;5043460;28;20437;-52
2022/05/26 05:10:11;;;;;;;2.13;1.93;;;17.10;99.90;;;;;;5040918;28;20503;-46
2022/05/26 05:12:40;;;;;;;4.30;2.07;;;17.10;99.90;;;;;;5055022;28;20475;-44
2022/05/26 05:15:14;;;;;;;4.77;1.90;;;17.10;99.90;;;;;;5057232;28;20502;-42
2022/05/26 05:17:44;;;;;;;1.80;1.50;;;17.10;99.90;;;;;;5057070;28;20429;-44
2022/05/26 05:20:11;;;;;;;1.83;1.60;;;17.20;99.90;;;;;;5055589;28;20483;-51
2022/05/26 05:22:43;;;;;;;3.00;1.83;;;17.10;99.90;;;;;;5054264;28;20432;-48
2022/05/26 05:25:14;;;;;;;2.80;2.40;;;17.10;99.90;;;;;;5057092;28;20433;-45
2022/05/26 05:27:44;;;;;;;2.77;1.90;;;17.10;99.90;;;;;;5057044;28;20448;-46
2022/05/26 05:30:18;;;;;;;4.33;1.93;;;17.10;99.90;;;;;;5056554;28;20432;-47
2022/05/26 05:32:52;;;;;;;3.43;1.97;;;17.10;99.90;;;;;;5057365;28;20460;-45
2022/05/26 05:35:22;;;;;;;1.90;1.60;;;17.10;99.90;;;;;;5057641;28;20468;-42
2022/05/26 05:37:49;;;;;;;2.10;1.73;;;17.10;99.90;;;;;;5057156;28;20487;-42
2022/05/26 05:40:16;;;;;;;2.73;2.20;;;17.10;99.90;;;;;;5056777;28;20479;-42
2022/05/26 05:42:43;;;;;;;4.83;2.10;;;17.10;99.90;;;;;;5056397;28;20482;-41
2022/05/26 05:45:10;;;;;;;3.50;2.30;;;17.10;99.90;;;;;;5055978;28;20436;-43
2022/05/26 05:47:37;;;;;;;2.77;2.00;;;17.10;99.90;;;;;;5055928;28;20451;-43
2022/05/26 05:50:06;;;;;;;2.57;2.07;;;17.10;99.90;;;;;;5057077;28;20459;-45
2022/05/26 05:52:33;;;;;;;2.50;1.93;;;17.10;99.90;;;;;;5056601;28;20445;-38
2022/05/26 05:55:00;;;;;;;3.10;2.20;;;17.10;99.90;;;;;;5054135;28;20472;-42
2022/05/26 05:57:27;;;;;;;3.90;2.27;;;17.20;99.90;;;;;;5051711;28;20487;-42
2022/05/26 05:59:54;;;;;;;4.97;2.80;;;17.30;99.90;;;;;;5051500;28;20476;-41
2022/05/26 06:02:21;;;;;;;5.50;2.83;;;17.40;99.90;;;;;;5056140;28;20467;-45
2022/05/26 06:04:48;;;;;;;2.87;2.67;;;17.40;99.90;;;;;;5056521;28;20488;-41
2022/05/26 06:07:18;;;;;;;3.03;2.53;;;17.60;99.90;;;;;;5055031;28;20441;-43
2022/05/26 06:09:46;;;;;;;5.40;2.77;;;17.60;99.90;;;;;;5048386;28;20429;-45
2022/05/26 06:12:13;;;;;;;6.83;2.93;;;17.50;99.90;;;;;;5053453;28;20877;-42
2022/05/26 06:14:42;;;;;;;4.50;2.40;;;17.50;99.90;;;;;;5053519;28;20509;-50
2022/05/26 06:17:09;;;;;;;3.57;2.70;;;17.40;99.90;;;;;;5050864;28;20475;-45
2022/05/26 06:19:35;;;;;;;3.30;2.40;;;17.50;99.90;;;;;;5055875;28;20484;-44
2022/05/26 06:22:07;;;;;;;3.03;2.60;;;17.40;99.90;;;;;;5052594;28;20476;-56
2022/05/26 06:24:37;;;;;;;2.47;2.27;;;17.40;99.90;;;;;;5054159;28;20440;-51
2022/05/26 06:29:49;;;;;;;5.07;3.90;;;17.40;99.90;;;;;;5055095;28;20471;-42
2022/05/26 06:29:50;;;;;;;7.13;2.87;;;17.40;99.90;;;;;;5053745;28;20439;-51
2022/05/26 06:37:47;;;;;;;3.20;2.90;;;17.80;99.90;;;;;;5053649;28;20435;-49
2022/05/26 06:40:15;;;;;;;2.77;2.50;;;17.80;99.90;;;;;;5056560;28;20475;-56
2022/05/26 06:42:44;;;;;;;4.03;2.80;;;17.80;99.90;;;;;;5056441;28;20468;-42
2022/05/26 06:45:15;;;;;;;2.80;2.30;;;18.00;99.90;;;;;;5056152;28;20514;-52
2022/05/26 06:47:42;;;;;;;8.30;3.20;;;18.20;99.90;;;;;;5056781;28;20534;-45
2022/05/26 06:50:11;;;;;;;5.60;3.40;;;18.30;99.90;;;;;;5056241;28;20459;-46
2022/05/26 06:52:38;;;;;;;4.53;2.73;;;18.40;99.90;;;;;;5055052;28;20544;-45
2022/05/26 06:55:07;;;;;;;3.40;2.67;;;18.40;99.90;;;;;;5056163;28;20433;-44
2022/05/26 06:57:35;;;;;;;4.27;2.80;;;18.40;99.90;;;;;;5050327;28;20476;-51
2022/05/26 07:00:03;;;;;;;3.07;2.63;;;18.60;99.90;;;;;;5053819;28;20436;-50
2022/05/26 07:02:30;;;;;;;5.73;3.20;;;18.60;99.90;;;;;;5051017;28;20443;-44
2022/05/26 07:04:57;;;;;;;2.87;2.30;;;18.60;99.90;;;;;;5053388;28;20429;-44
2022/05/26 07:07:25;;;;;;;4.47;2.70;;;18.70;99.90;;;;;;5054816;28;20448;-44
2022/05/26 07:09:53;;;;;;;4.90;2.80;;;18.80;99.90;;;;;;5054913;28;20506;-46
2022/05/26 07:12:20;;;;;;;5.73;2.80;;;18.60;99.90;;;;;;5055681;28;20420;-49
2022/05/26 07:14:48;;;;;;;2.50;2.30;;;18.50;99.90;;;;;;5052625;28;20509;-45
2022/05/26 07:17:15;;;;;;;3.07;2.20;;;18.30;99.90;;;;;;5049805;28;20483;-45
2022/05/26 07:19:42;;;;;;;6.33;3.13;;;18.10;99.90;;;;;;5054063;28;20445;-52
2022/05/26 07:22:09;;;;;;;3.90;2.53;;;18.00;99.90;;;;;;5052419;28;20428;-46
2022/05/26 07:24:37;;;;;;;2.80;2.00;;;17.90;99.90;;;;;;5045107;28;20460;-52
2022/05/26 07:27:04;;;;;;;3.40;2.67;;;17.90;99.90;;;;;;5052319;28;20460;-49
2022/05/26 07:29:30;;;;;;;3.83;2.57;;;17.80;99.90;;;;;;5045471;28;20448;-48
2022/05/26 07:31:59;;;;;;;6.03;3.00;;;17.80;99.90;;;;;;5051417;28;20480;-41
2022/05/26 07:34:26;;;;;;;3.63;3.13;;;17.70;99.90;;;;;;5050593;28;20452;-49
2022/05/26 07:42:24;;;;;;;3.70;3.20;;;17.00;99.90;;;;;;5036832;28;20438;-52
2022/05/26 07:44:54;;;;;;;6.67;5.67;;;16.80;99.90;;;;;;5055802;28;20506;-43
2022/05/26 07:47:23;;;;;;;5.70;3.90;;;16.60;99.90;;;;;;5055691;28;20420;-48
2022/05/26 07:49:50;;;;;;;4.37;3.53;;;16.50;99.90;;;;;;5067898;28;20459;-47
2022/05/26 07:52:17;;;;;;;7.30;3.77;;;16.30;99.90;;;;;;5074433;28;20435;-49
2022/05/26 07:54:44;;;;;;;4.47;3.67;;;16.20;99.90;;;;;;5073470;28;20524;-49
2022/05/26 07:57:19;;;;;;;8.10;5.13;;;16.10;99.90;;;;;;5042114;28;20463;-50
2022/05/26 07:59:45;;;;;;;4.70;4.17;;;16.10;99.90;;;;;;5071611;28;20458;-48
2022/05/26 08:02:12;;;;;;;9.70;8.10;;;16.20;99.90;;;;;;5064355;28;20423;-50
2022/05/26 08:04:40;;;;;;;11.60;7.40;;;16.30;99.90;;;;;;5069909;28;20451;-40
2022/05/26 08:07:07;;;;;;;8.20;6.07;;;16.40;99.90;;;;;;5060894;28;20465;-47
2022/05/26 08:09:35;;;;;;;5.30;4.80;;;16.40;99.90;;;;;;5070321;28;20440;-54
2022/05/26 08:12:01;;;;;;;7.17;5.37;;;16.40;99.90;;;;;;5066396;28;20466;-44
2022/05/26 08:14:28;;;;;;;4.70;4.07;;;16.50;99.90;;;;;;5074479;28;20423;-47
2022/05/26 08:16:55;;;;;;;4.50;4.10;;;16.60;99.90;;;;;;5071263;28;20474;-48
2022/05/26 08:19:22;;;;;;;5.63;4.03;;;16.70;99.90;;;;;;5062301;28;20443;-47
2022/05/26 08:21:50;;;;;;;3.97;3.67;;;17.00;99.90;;;;;;5077189;28;20454;-44
2022/05/26 08:24:19;;;;;;;5.60;3.90;;;17.40;99.90;;;;;;5063215;28;20444;-42
2022/05/26 08:26:46;;;;;;;5.20;4.70;;;17.70;99.90;;;;;;5058488;28;20467;-42
2022/05/26 08:29:13;;;;;;;4.20;3.80;;;17.90;99.90;;;;;;5061471;28;20436;-51
2022/05/26 08:31:39;;;;;;;4.87;3.53;;;18.20;99.90;;;;;;5067218;28;20441;-49
2022/05/26 08:34:06;;;;;;;3.47;2.80;;;18.50;99.90;;;;;;5057777;28;20437;-44
2022/05/26 08:36:35;;;;;;;4.10;3.57;;;19.00;99.90;;;;;;5057859;28;20480;-43
2022/05/26 08:39:03;;;;;;;3.80;3.10;;;19.40;99.90;;;;;;5076994;28;20424;-45
2022/05/26 08:41:33;;;;;;;4.30;2.77;;;20.00;99.90;;;;;;5069135;28;20444;-44
2022/05/26 08:44:07;;;;;;;3.30;2.40;;;20.80;99.90;;;;;;5065575;28;20435;-46
2022/05/26 08:46:38;;;;;;;2.27;1.80;;;21.90;99.90;;;;;;5072860;28;20440;-45
2022/05/26 08:49:13;;;;;;;2.07;1.57;;;22.90;99.90;;;;;;5073044;28;20419;-47
2022/05/26 08:51:45;;;;;;;3.20;1.80;;;24.00;99.90;;;;;;5052995;28;20432;-49
2022/05/26 08:54:22;;;;;;;3.10;1.70;;;24.80;99.90;;;;;;5066651;28;20459;-51
2022/05/26 08:56:49;;;;;;;3.00;2.00;;;25.20;99.90;;;;;;5058438;28;20563;-49
2022/05/26 08:59:18;;;;;;;5.20;2.07;;;24.50;99.90;;;;;;5072659;28;20478;-42
2022/05/26 09:01:45;;;;;;;2.13;1.73;;;23.90;99.90;;;;;;5052245;28;20534;-44
2022/05/26 09:04:12;;;;;;;4.30;1.73;;;23.80;99.90;;;;;;5057731;28;20459;-51
2022/05/26 09:15:07;;;;;;;1.50;1.40;;;24.90;97.50;;;;;;5073638;28;20471;-47
2022/05/26 09:17:33;;;;;;;2.07;1.50;;;25.10;96.00;;;;;;5077410;28;20447;-42
2022/05/26 09:20:04;;;;;;;6.70;1.70;;;25.60;94.30;;;;;;5066527;28;20482;-41
2022/05/26 09:22:33;;;;;;;1.30;1.20;;;25.20;92.80;;;;;;5077394;28;20459;-46
2022/05/26 09:25:01;;;;;;;4.13;1.90;;;24.30;93.20;;;;;;5077214;28;20443;-47
2022/05/26 09:27:31;;;;;;;1.60;1.50;;;23.40;96.00;;;;;;5075544;28;20443;-50
2022/05/26 09:30:19;;;;;;;4.00;1.40;;;22.50;97.80;;;;;;5070583;28;20510;-52
2022/05/26 09:32:47;;;;;;;3.63;1.93;;;21.80;99.90;;;;;;5077253;28;20498;-41
2022/05/26 09:35:26;;;;;;;2.90;1.40;;;21.50;99.90;;;;;;5077332;28;20465;-44
2022/05/26 09:37:55;;;;;;;4.97;1.33;;;21.60;99.90;;;;;;5077374;28;20494;-39
2022/05/26 09:40:28;;;;;;;2.83;1.40;;;22.00;99.90;;;;;;5077812;28;20450;-50
2022/05/26 09:43:02;;;;;;;3.00;1.27;;;22.30;99.90;;;;;;5077377;28;20407;-54
2022/05/26 09:45:35;;;;;;;2.80;1.50;;;22.40;99.70;;;;;;5077904;28;20424;-50
2022/05/26 09:48:13;;;;;;;2.73;1.60;;;22.50;98.40;;;;;;5077475;28;20417;-44
2022/05/26 09:50:46;;;;;;;1.77;1.17;;;22.40;97.40;;;;;;5076845;28;20474;-44
2022/05/26 09:53:14;;;;;;;2.60;1.30;;;22.60;97.60;;;;;;5067092;28;20431;-44
2022/05/26 09:55:47;;;;;;;2.80;1.73;;;22.60;97.20;;;;;;5077134;28;20478;-44
2022/05/26 09:58:27;;;;;;;5.53;1.63;;;23.10;95.20;;;;;;5077110;28;20460;-47
2022/05/26 10:00:57;;;;;;;4.10;1.50;;;23.50;93.90;;;;;;5076851;28;20468;-42
2022/05/26 10:03:33;;;;;;;2.10;1.90;;;24.00;93.80;;;;;;5076657;28;20498;-44
2022/05/26 10:06:15;;;;;;;2.40;1.60;;;24.50;92.40;;;;;;5076008;28;20439;-47
2022/05/26 10:08:54;;;;;;;2.80;1.40;;;24.80;91.00;;;;;;5076853;28;20422;-47
2022/05/26 10:11:35;;;;;;;1.57;1.47;;;25.10;88.30;;;;;;5076209;28;20439;-48
2022/05/26 10:14:12;;;;;;;2.03;1.47;;;25.60;87.30;;;;;;5072306;28;20456;-38
2022/05/26 10:16:45;;;;;;;1.73;1.47;;;25.70;82.10;;;;;;5055598;28;20483;-42
2022/05/26 10:19:32;;;;;;;1.67;1.57;;;25.30;80.70;;;;;;5056588;28;20409;-45
2022/05/26 10:22:15;;;;;;;1.70;1.20;;;24.10;83.50;;;;;;5069883;28;20466;-45
2022/05/26 10:25:04;;;;;;;2.00;1.73;;;23.20;86.70;;;;;;5056933;28;20438;-44
2022/05/26 10:27:46;;;;;;;2.90;1.37;;;22.60;89.60;;;;;;5060389;28;20439;-38
2022/05/26 10:30:32;;;;;;;5.13;2.37;;;22.20;90.80;;;;;;5075638;28;20428;-40
2022/05/26 10:33:20;;;;;;;3.07;1.73;;;21.60;91.70;;;;;;5070977;28;20535;-43
2022/05/26 10:35:59;;;;;;;3.47;1.93;;;21.20;92.70;;;;;;5073147;28;20469;-39
2022/05/26 10:38:55;;;;;;;3.20;2.00;;;20.90;93.90;;;;;;5068245;28;20487;-47
2022/05/26 10:41:31;;;;;;;3.37;1.40;;;20.70;94.50;;;;;;5072914;28;20427;-47
2022/05/26 10:44:05;;;;;;;3.90;1.67;;;20.50;95.40;;;;;;5076466;28;20501;-46
2022/05/26 10:46:36;;;;;;;2.23;2.03;;;20.30;96.50;;;;;;5076450;28;20412;-41
2022/05/26 10:49:07;;;;;;;2.20;1.90;;;20.10;97.50;;;;;;5076201;28;20590;-44
2022/05/26 10:51:40;;;;;;;4.07;2.03;;;20.00;98.70;;;;;;5076411;28;20446;-44
2022/05/26 10:54:12;;;;;;;2.90;2.10;;;19.90;99.90;;;;;;5076312;28;20432;-50
2022/05/26 10:56:46;;;;;;;3.30;2.20;;;20.00;99.90;;;;;;5076259;28;20423;-43
2022/05/26 10:59:20;;;;;;;3.17;1.60;;;20.20;99.90;;;;;;5070240;28;20423;-46
2022/05/26 11:01:52;;;;;;;4.23;2.13;;;20.30;99.90;;;;;;5073488;28;20455;-46
2022/05/26 11:04:25;;;;;;;4.90;1.90;;;20.40;99.90;;;;;;5076268;28;20424;-49
2022/05/26 11:06:55;;;;;;;4.33;2.27;;;20.60;99.90;;;;;;5076199;28;20470;-46
2022/05/26 11:09:27;;;;;;;5.60;1.83;;;20.60;99.90;;;;;;5075759;28;20423;-41
2022/05/26 11:11:58;;;;;;;2.90;1.63;;;20.50;99.30;;;;;;5076253;28;20489;-40
2022/05/26 11:17:34;;;;;;;3.33;2.00;;;20.90;98.90;;;;;;5075529;28;20482;-37
2022/05/26 11:20:05;;;;;;;4.73;1.97;;;21.20;99.40;;;;;;5079686;28;20423;-44
2022/05/26 11:22:32;;;;;;;2.60;2.07;;;21.70;99.00;;;;;;5080033;28;20423;-41
2022/05/26 11:25:02;;;;;;;3.00;1.80;;;21.80;98.70;;;;;;5072110;28;20454;-43
2022/05/26 11:27:35;;;;;;;3.10;2.23;;;21.60;97.60;;;;;;5079506;28;20435;-50
2022/05/26 11:30:06;;;;;;;2.97;1.77;;;21.50;98.10;;;;;;5079873;28;20447;-43
2022/05/26 11:38:16;;;;;;;6.57;2.37;;;21.50;95.50;;;;;;5059818;28;20467;-41
2022/05/26 11:40:47;;;;;;;5.87;2.00;;;21.80;94.00;;;;;;5059936;28;20571;-43
2022/05/26 11:43:24;;;;;;;2.50;2.30;;;21.70;94.20;;;;;;5059661;28;20432;-39
2022/05/26 11:45:54;;;;;;;3.23;2.27;;;21.60;95.60;;;;;;5040532;28;20472;-39
2022/05/26 11:48:44;;;;;;;9.93;2.30;;;21.60;95.70;;;;;;5039920;28;20456;-41
2022/05/26 11:51:31;;;;;;;5.00;2.43;;;21.40;95.50;;;;;;5039537;28;20473;-44
2022/05/26 11:54:00;;;;;;;5.73;2.00;;;21.10;95.50;;;;;;5040280;28;20464;-43
2022/05/26 11:56:48;;;;;;;3.03;2.00;;;20.60;92.90;;;;;;5039811;28;20479;-41
2022/05/26 11:59:21;;;;;;;4.10;1.63;;;20.30;92.20;;;;;;5040041;28;20459;-37
2022/05/26 12:02:09;;;;;;;2.70;1.73;;;20.10;92.40;;;;;;5039742;28;20485;-42
2022/05/26 12:04:38;;;;;;;5.13;1.93;;;20.20;91.90;;;;;;5039505;28;20457;-48
2022/05/26 12:07:07;;;;;;;3.20;2.07;;;20.60;91.40;;;;;;5039539;28;20492;-41
2022/05/26 12:09:36;;;;;;;3.43;1.73;;;20.80;91.90;;;;;;5039534;28;20473;-39
2022/05/26 12:12:07;;;;;;;4.87;2.03;;;21.10;92.20;;;;;;5039750;28;20576;-41
2022/05/26 12:14:36;;;;;;;4.27;2.20;;;21.10;92.00;;;;;;5039105;28;20469;-40
2022/05/26 12:17:34;;;;;;;5.73;2.53;;;21.10;92.50;;;;;;5039044;28;20480;-43
2022/05/26 12:20:04;;;;;;;2.83;2.00;;;21.10;93.00;;;;;;5045178;28;20564;-45
2022/05/26 12:22:32;;;;;;;2.17;1.63;;;21.20;92.90;;;;;;5058310;28;20480;-42
2022/05/26 12:25:19;;;;;;;8.90;2.17;;;21.30;93.00;;;;;;5058722;28;20478;-40
2022/05/26 12:28:06;;;;;;;5.07;1.83;;;21.30;93.30;;;;;;5058863;28;20475;-43
2022/05/26 12:30:43;;;;;;;2.00;1.80;;;21.30;93.40;;;;;;5058093;28;20472;-42
2022/05/26 12:33:47;;;;;;;3.23;2.00;;;21.20;93.40;;;;;;5058529;28;20701;-42
2022/05/26 12:36:21;;;;;;;5.30;1.87;;;21.20;92.80;;;;;;5058504;28;20515;-42
2022/05/26 12:38:59;;;;;;;2.77;2.30;;;21.40;92.90;;;;;;5058731;28;20506;-44
2022/05/26 12:41:35;;;;;;;3.67;1.87;;;21.30;92.40;;;;;;5058485;28;20467;-40
2022/05/26 12:44:35;;;;;;;5.47;2.33;;;21.20;93.20;;;;;;5059490;28;20421;-55
2022/05/26 12:47:13;;;;;;;3.93;2.20;;;21.10;93.70;;;;;;5058659;28;20533;-55
2022/05/26 12:49:57;;;;;;;5.93;2.00;;;21.10;94.50;;;;;;5058350;28;20439;-56
2022/05/26 12:52:31;;;;;;;1.73;1.63;;;21.20;94.50;;;;;;5058918;28;20606;-53
2022/05/26 12:55:16;;;;;;;7.83;2.10;;;21.40;93.50;;;;;;5058683;28;20451;-57
2022/05/26 12:57:46;;;;;;;3.30;2.50;;;21.40;92.90;;;;;;5058524;28;20522;-56
2022/05/26 13:00:29;;;;;;;4.43;2.20;;;21.30;93.10;;;;;;5058211;28;20413;-58
2022/05/26 13:02:58;;;;;;;8.60;2.03;;;21.30;93.60;;;;;;5058385;28;20820;-59
2022/05/26 13:05:29;;;;;;;5.30;2.30;;;21.50;92.70;;;;;;5058568;28;20456;-54
2022/05/26 13:07:57;;;;;;;3.50;2.60;;;21.60;92.60;;;;;;5058428;28;20460;-60
2022/05/26 13:10:28;;;;;;;4.73;2.30;;;21.50;92.00;;;;;;5058388;28;20461;-55
2022/05/26 13:12:56;;;;;;;3.37;2.10;;;21.30;91.60;;;;;;5058676;28;20440;-55
2022/05/26 13:15:26;;;;;;;4.07;2.10;;;21.20;92.00;;;;;;5058311;28;20440;-56
2022/05/26 13:17:54;;;;;;;4.67;2.43;;;21.00;92.50;;;;;;5058345;28;20494;-56
2022/05/26 13:20:25;;;;;;;3.80;1.90;;;20.90;91.80;;;;;;5058653;28;20453;-52
2022/05/26 13:22:53;;;;;;;3.47;2.03;;;20.80;90.60;;;;;;5058516;28;20473;-55
2022/05/26 13:25:26;;;;;;;2.10;1.60;;;20.70;90.40;;;;;;5058211;28;20452;-52
2022/05/26 13:27:57;;;;;;;1.97;1.60;;;20.70;90.40;;;;;;5057735;28;20476;-56
2022/05/26 13:33:19;;;;;;;1.83;1.33;;;20.80;90.10;;;;;;5057920;28;20463;-58
2022/05/26 13:35:50;;;;;;;3.80;1.97;;;20.70;89.50;;;;;;5058045;28;20428;-55
2022/05/26 13:38:32;;;;;;;8.00;2.43;;;20.70;88.10;;;;;;5057983;28;20491;-56
2022/05/26 13:41:00;;;;;;;3.40;2.67;;;20.70;89.30;;;;;;5057395;28;20474;-53
2022/05/26 13:43:33;;;;;;;8.27;2.90;;;20.60;89.10;;;;;;5057729;28;20459;-57
2022/05/26 13:46:00;;;;;;;4.63;3.03;;;20.50;89.20;;;;;;5058212;28;20436;-58
2022/05/26 13:48:36;;;;;;;8.30;1.87;;;20.50;87.70;;;;;;5056474;28;20464;-60